sensor_id;sensor_type;location;lat;lon;timestamp;P1;durP1;ratioP1;P2;durP2;ratioP2
20146;SDS011;10234;50.856;15.716;2022-12-17T00:00:29;102.35;;;43.40;;
20146;SDS011;10234;50.856;15.716;2022-12-17T00:03:14;98.47;;;43.28;;
20146;SDS011;10234;50.856;15.716;2022-12-17T00:05:58;94.78;;;42.60;;
20146;SDS011;10234;50.856;15.716;2022-12-17T00:08:53;88.70;;;41.20;;
20146;SDS011;10234;50.856;15.716;2022-12-17T00:11:40;90.97;;;41.38;;
20146;SDS011;10234;50.856;15.716;2022-12-17T00:14:24;94.75;;;42.35;;
20146;SDS011;10234;50.856;15.716;2022-12-17T00:17:09;89.35;;;41.50;;
20146;SDS011;10234;50.856;15.716;2022-12-17T00:19:53;95.00;;;42.28;;
20146;SDS011;10234;50.856;15.716;2022-12-17T00:22:37;93.82;;;41.60;;
20146;SDS011;10234;50.856;15.716;2022-12-17T00:25:22;83.43;;;42.67;;
20146;SDS011;10234;50.856;15.716;2022-12-17T00:28:09;90.63;;;41.08;;
20146;SDS011;10234;50.856;15.716;2022-12-17T00:30:54;89.22;;;39.22;;
20146;SDS011;10234;50.856;15.716;2022-12-17T00:33:38;85.93;;;40.13;;
20146;SDS011;10234;50.856;15.716;2022-12-17T00:36:23;89.40;;;40.17;;
20146;SDS011;10234;50.856;15.716;2022-12-17T00:39:08;79.35;;;38.85;;
20146;SDS011;10234;50.856;15.716;2022-12-17T00:42:03;83.53;;;38.97;;
20146;SDS011;10234;50.856;15.716;2022-12-17T00:44:49;84.85;;;40.05;;
20146;SDS011;10234;50.856;15.716;2022-12-17T00:47:33;93.22;;;40.38;;
20146;SDS011;10234;50.856;15.716;2022-12-17T00:50:32;94.40;;;41.28;;
20146;SDS011;10234;50.856;15.716;2022-12-17T00:53:16;94.90;;;39.70;;
20146;SDS011;10234;50.856;15.716;2022-12-17T00:56:01;95.43;;;40.92;;
20146;SDS011;10234;50.856;15.716;2022-12-17T00:58:45;79.47;;;37.08;;
20146;SDS011;10234;50.856;15.716;2022-12-17T01:01:31;87.28;;;39.58;;
20146;SDS011;10234;50.856;15.716;2022-12-17T01:04:15;94.40;;;40.88;;
20146;SDS011;10234;50.856;15.716;2022-12-17T01:07:00;94.60;;;42.75;;
20146;SDS011;10234;50.856;15.716;2022-12-17T01:09:45;85.82;;;40.42;;
20146;SDS011;10234;50.856;15.716;2022-12-17T01:12:29;94.55;;;43.05;;
20146;SDS011;10234;50.856;15.716;2022-12-17T01:15:14;95.55;;;41.08;;
20146;SDS011;10234;50.856;15.716;2022-12-17T01:17:59;86.80;;;37.15;;
20146;SDS011;10234;50.856;15.716;2022-12-17T01:20:45;88.35;;;39.85;;
20146;SDS011;10234;50.856;15.716;2022-12-17T01:23:30;80.85;;;37.75;;
20146;SDS011;10234;50.856;15.716;2022-12-17T01:26:23;92.10;;;40.13;;
20146;SDS011;10234;50.856;15.716;2022-12-17T01:29:08;88.45;;;40.35;;
20146;SDS011;10234;50.856;15.716;2022-12-17T01:31:52;87.45;;;39.60;;
20146;SDS011;10234;50.856;15.716;2022-12-17T01:34:38;84.25;;;39.63;;
20146;SDS011;10234;50.856;15.716;2022-12-17T01:37:22;84.38;;;36.78;;
20146;SDS011;10234;50.856;15.716;2022-12-17T01:40:07;89.97;;;40.83;;
20146;SDS011;10234;50.856;15.716;2022-12-17T01:42:52;82.82;;;37.40;;
20146;SDS011;10234;50.856;15.716;2022-12-17T01:45:37;86.20;;;39.03;;
20146;SDS011;10234;50.856;15.716;2022-12-17T01:48:26;85.18;;;39.08;;
20146;SDS011;10234;50.856;15.716;2022-12-17T01:51:14;88.55;;;40.35;;
20146;SDS011;10234;50.856;15.716;2022-12-17T01:54:00;97.07;;;41.53;;
20146;SDS011;10234;50.856;15.716;2022-12-17T01:56:45;93.65;;;39.67;;
20146;SDS011;10234;50.856;15.716;2022-12-17T01:59:31;84.18;;;38.78;;
20146;SDS011;10234;50.856;15.716;2022-12-17T02:02:21;88.10;;;40.67;;
20146;SDS011;10234;50.856;15.716;2022-12-17T02:05:06;86.90;;;38.92;;
20146;SDS011;10234;50.856;15.716;2022-12-17T02:07:54;84.57;;;39.28;;
20146;SDS011;10234;50.856;15.716;2022-12-17T02:10:45;84.60;;;37.67;;
20146;SDS011;10234;50.856;15.716;2022-12-17T02:13:35;80.18;;;38.63;;
20146;SDS011;10234;50.856;15.716;2022-12-17T02:16:24;90.22;;;39.72;;
20146;SDS011;10234;50.856;15.716;2022-12-17T02:19:23;87.97;;;39.25;;
20146;SDS011;10234;50.856;15.716;2022-12-17T02:22:26;82.20;;;38.15;;
20146;SDS011;10234;50.856;15.716;2022-12-17T02:25:24;90.57;;;39.33;;
20146;SDS011;10234;50.856;15.716;2022-12-17T02:28:17;93.85;;;39.47;;
20146;SDS011;10234;50.856;15.716;2022-12-17T02:31:02;97.82;;;42.28;;
20146;SDS011;10234;50.856;15.716;2022-12-17T02:33:48;97.05;;;40.75;;
20146;SDS011;10234;50.856;15.716;2022-12-17T02:36:33;86.10;;;38.45;;
20146;SDS011;10234;50.856;15.716;2022-12-17T02:39:17;93.50;;;39.55;;
20146;SDS011;10234;50.856;15.716;2022-12-17T02:42:02;89.97;;;39.42;;
20146;SDS011;10234;50.856;15.716;2022-12-17T02:44:48;95.38;;;40.55;;
20146;SDS011;10234;50.856;15.716;2022-12-17T02:47:33;84.03;;;37.30;;
20146;SDS011;10234;50.856;15.716;2022-12-17T02:50:18;79.88;;;36.45;;
20146;SDS011;10234;50.856;15.716;2022-12-17T02:53:03;93.60;;;41.10;;
20146;SDS011;10234;50.856;15.716;2022-12-17T02:55:48;92.38;;;39.42;;
20146;SDS011;10234;50.856;15.716;2022-12-17T02:58:32;86.28;;;38.13;;
20146;SDS011;10234;50.856;15.716;2022-12-17T03:01:18;82.55;;;38.45;;
20146;SDS011;10234;50.856;15.716;2022-12-17T03:04:02;96.40;;;41.28;;
20146;SDS011;10234;50.856;15.716;2022-12-17T03:06:47;84.85;;;37.95;;
20146;SDS011;10234;50.856;15.716;2022-12-17T03:09:31;90.50;;;39.13;;
20146;SDS011;10234;50.856;15.716;2022-12-17T03:12:15;86.90;;;39.28;;
20146;SDS011;10234;50.856;15.716;2022-12-17T03:15:00;91.63;;;40.92;;
20146;SDS011;10234;50.856;15.716;2022-12-17T03:17:46;90.97;;;40.38;;
20146;SDS011;10234;50.856;15.716;2022-12-17T03:20:30;85.15;;;38.10;;
20146;SDS011;10234;50.856;15.716;2022-12-17T03:23:14;87.30;;;37.00;;
20146;SDS011;10234;50.856;15.716;2022-12-17T03:25:59;91.18;;;40.78;;
20146;SDS011;10234;50.856;15.716;2022-12-17T03:28:44;93.00;;;39.08;;
20146;SDS011;10234;50.856;15.716;2022-12-17T03:31:29;90.53;;;40.15;;
20146;SDS011;10234;50.856;15.716;2022-12-17T03:34:14;90.68;;;39.28;;
20146;SDS011;10234;50.856;15.716;2022-12-17T03:36:59;88.57;;;39.97;;
20146;SDS011;10234;50.856;15.716;2022-12-17T03:39:43;85.97;;;38.20;;
20146;SDS011;10234;50.856;15.716;2022-12-17T03:42:27;90.18;;;38.75;;
20146;SDS011;10234;50.856;15.716;2022-12-17T03:45:12;85.22;;;39.45;;
20146;SDS011;10234;50.856;15.716;2022-12-17T03:48:06;84.30;;;39.17;;
20146;SDS011;10234;50.856;15.716;2022-12-17T03:50:53;87.88;;;37.15;;
20146;SDS011;10234;50.856;15.716;2022-12-17T03:53:38;80.45;;;35.78;;
20146;SDS011;10234;50.856;15.716;2022-12-17T03:56:23;80.55;;;35.35;;
20146;SDS011;10234;50.856;15.716;2022-12-17T03:59:07;79.93;;;36.97;;
20146;SDS011;10234;50.856;15.716;2022-12-17T04:01:52;88.95;;;36.95;;
20146;SDS011;10234;50.856;15.716;2022-12-17T04:04:37;87.78;;;37.83;;
20146;SDS011;10234;50.856;15.716;2022-12-17T04:07:22;77.35;;;34.00;;
20146;SDS011;10234;50.856;15.716;2022-12-17T04:10:07;78.93;;;35.40;;
20146;SDS011;10234;50.856;15.716;2022-12-17T04:12:51;75.18;;;34.92;;
20146;SDS011;10234;50.856;15.716;2022-12-17T04:15:36;84.95;;;35.55;;
20146;SDS011;10234;50.856;15.716;2022-12-17T04:18:20;80.32;;;35.75;;
20146;SDS011;10234;50.856;15.716;2022-12-17T04:21:05;77.20;;;34.58;;
20146;SDS011;10234;50.856;15.716;2022-12-17T04:23:51;77.55;;;35.20;;
20146;SDS011;10234;50.856;15.716;2022-12-17T04:26:35;86.50;;;36.15;;
20146;SDS011;10234;50.856;15.716;2022-12-17T04:29:20;82.40;;;36.78;;
20146;SDS011;10234;50.856;15.716;2022-12-17T04:32:04;80.28;;;34.88;;
20146;SDS011;10234;50.856;15.716;2022-12-17T04:34:49;77.43;;;33.08;;
20146;SDS011;10234;50.856;15.716;2022-12-17T04:37:33;81.97;;;35.90;;
20146;SDS011;10234;50.856;15.716;2022-12-17T04:40:19;69.88;;;33.72;;
20146;SDS011;10234;50.856;15.716;2022-12-17T04:43:04;80.30;;;34.42;;
20146;SDS011;10234;50.856;15.716;2022-12-17T04:45:49;81.13;;;35.53;;
20146;SDS011;10234;50.856;15.716;2022-12-17T04:48:39;74.47;;;33.15;;
20146;SDS011;10234;50.856;15.716;2022-12-17T04:51:23;81.88;;;35.28;;
20146;SDS011;10234;50.856;15.716;2022-12-17T04:54:08;76.63;;;34.03;;
20146;SDS011;10234;50.856;15.716;2022-12-17T04:56:54;72.35;;;32.95;;
20146;SDS011;10234;50.856;15.716;2022-12-17T04:59:38;80.95;;;34.70;;
20146;SDS011;10234;50.856;15.716;2022-12-17T05:02:22;80.97;;;34.88;;
20146;SDS011;10234;50.856;15.716;2022-12-17T05:05:07;77.47;;;34.85;;
20146;SDS011;10234;50.856;15.716;2022-12-17T05:07:52;69.45;;;31.17;;
20146;SDS011;10234;50.856;15.716;2022-12-17T05:10:41;70.88;;;33.53;;
20146;SDS011;10234;50.856;15.716;2022-12-17T05:13:36;76.97;;;33.53;;
20146;SDS011;10234;50.856;15.716;2022-12-17T05:16:16;80.38;;;34.05;;
20146;SDS011;10234;50.856;15.716;2022-12-17T05:19:01;76.05;;;33.78;;
20146;SDS011;10234;50.856;15.716;2022-12-17T05:21:46;72.05;;;33.10;;
20146;SDS011;10234;50.856;15.716;2022-12-17T05:24:31;83.68;;;34.55;;
20146;SDS011;10234;50.856;15.716;2022-12-17T05:27:15;75.00;;;33.47;;
20146;SDS011;10234;50.856;15.716;2022-12-17T05:30:01;79.85;;;33.25;;
20146;SDS011;10234;50.856;15.716;2022-12-17T05:32:46;71.85;;;32.28;;
20146;SDS011;10234;50.856;15.716;2022-12-17T05:35:30;82.67;;;34.20;;
20146;SDS011;10234;50.856;15.716;2022-12-17T05:38:15;76.43;;;31.17;;
20146;SDS011;10234;50.856;15.716;2022-12-17T05:40:59;68.13;;;30.23;;
20146;SDS011;10234;50.856;15.716;2022-12-17T05:43:44;66.05;;;32.15;;
20146;SDS011;10234;50.856;15.716;2022-12-17T05:46:29;69.15;;;28.67;;
20146;SDS011;10234;50.856;15.716;2022-12-17T05:49:14;63.67;;;29.70;;
20146;SDS011;10234;50.856;15.716;2022-12-17T05:51:59;63.35;;;28.80;;
20146;SDS011;10234;50.856;15.716;2022-12-17T05:54:43;61.03;;;29.93;;
20146;SDS011;10234;50.856;15.716;2022-12-17T05:57:27;60.60;;;27.48;;
20146;SDS011;10234;50.856;15.716;2022-12-17T06:00:12;66.10;;;30.17;;
20146;SDS011;10234;50.856;15.716;2022-12-17T06:02:58;64.45;;;29.55;;
20146;SDS011;10234;50.856;15.716;2022-12-17T06:05:43;64.50;;;29.73;;
20146;SDS011;10234;50.856;15.716;2022-12-17T06:08:27;61.63;;;28.33;;
20146;SDS011;10234;50.856;15.716;2022-12-17T06:11:12;69.00;;;29.33;;
20146;SDS011;10234;50.856;15.716;2022-12-17T06:13:56;64.53;;;28.63;;
20146;SDS011;10234;50.856;15.716;2022-12-17T06:16:40;60.27;;;26.50;;
20146;SDS011;10234;50.856;15.716;2022-12-17T06:19:26;66.03;;;29.77;;
20146;SDS011;10234;50.856;15.716;2022-12-17T06:22:10;68.53;;;28.60;;
20146;SDS011;10234;50.856;15.716;2022-12-17T06:24:55;62.30;;;27.10;;
20146;SDS011;10234;50.856;15.716;2022-12-17T06:27:39;61.87;;;27.47;;
20146;SDS011;10234;50.856;15.716;2022-12-17T06:30:24;65.67;;;27.87;;
20146;SDS011;10234;50.856;15.716;2022-12-17T06:33:09;74.82;;;35.75;;
20146;SDS011;10234;50.856;15.716;2022-12-17T06:35:56;65.35;;;28.75;;
20146;SDS011;10234;50.856;15.716;2022-12-17T06:38:41;71.70;;;27.77;;
20146;SDS011;10234;50.856;15.716;2022-12-17T06:41:26;59.50;;;26.17;;
20146;SDS011;10234;50.856;15.716;2022-12-17T06:44:12;55.78;;;25.42;;
20146;SDS011;10234;50.856;15.716;2022-12-17T06:46:56;67.75;;;27.77;;
20146;SDS011;10234;50.856;15.716;2022-12-17T06:49:41;60.37;;;27.23;;
20146;SDS011;10234;50.856;15.716;2022-12-17T06:52:27;61.42;;;26.55;;
20146;SDS011;10234;50.856;15.716;2022-12-17T06:55:11;58.80;;;25.85;;
20146;SDS011;10234;50.856;15.716;2022-12-17T06:57:58;57.77;;;26.40;;
20146;SDS011;10234;50.856;15.716;2022-12-17T07:00:43;60.03;;;27.83;;
20146;SDS011;10234;50.856;15.716;2022-12-17T07:03:36;53.50;;;25.20;;
20146;SDS011;10234;50.856;15.716;2022-12-17T07:06:21;59.67;;;26.67;;
20146;SDS011;10234;50.856;15.716;2022-12-17T07:09:13;57.07;;;26.03;;
20146;SDS011;10234;50.856;15.716;2022-12-17T07:11:57;61.93;;;26.57;;
20146;SDS011;10234;50.856;15.716;2022-12-17T07:14:42;71.80;;;28.67;;
20146;SDS011;10234;50.856;15.716;2022-12-17T07:17:26;64.87;;;28.23;;
20146;SDS011;10234;50.856;15.716;2022-12-17T07:20:11;57.33;;;26.03;;
20146;SDS011;10234;50.856;15.716;2022-12-17T07:22:55;59.90;;;26.00;;
20146;SDS011;10234;50.856;15.716;2022-12-17T07:25:38;54.37;;;24.57;;
20146;SDS011;10234;50.856;15.716;2022-12-17T07:28:22;65.13;;;28.60;;
20146;SDS011;10234;50.856;15.716;2022-12-17T07:31:06;52.95;;;24.23;;
20146;SDS011;10234;50.856;15.716;2022-12-17T07:33:50;59.83;;;25.87;;
20146;SDS011;10234;50.856;15.716;2022-12-17T07:36:35;63.92;;;26.45;;
20146;SDS011;10234;50.856;15.716;2022-12-17T07:39:19;57.35;;;25.30;;
20146;SDS011;10234;50.856;15.716;2022-12-17T07:42:05;57.03;;;26.40;;
20146;SDS011;10234;50.856;15.716;2022-12-17T07:44:49;58.47;;;27.13;;
20146;SDS011;10234;50.856;15.716;2022-12-17T07:47:34;63.90;;;27.23;;
20146;SDS011;10234;50.856;15.716;2022-12-17T07:50:18;58.37;;;26.60;;
20146;SDS011;10234;50.856;15.716;2022-12-17T07:53:03;58.03;;;27.90;;
20146;SDS011;10234;50.856;15.716;2022-12-17T07:55:48;50.03;;;25.20;;
20146;SDS011;10234;50.856;15.716;2022-12-17T07:58:34;58.17;;;26.67;;
20146;SDS011;10234;50.856;15.716;2022-12-17T08:01:18;59.33;;;25.33;;
20146;SDS011;10234;50.856;15.716;2022-12-17T08:04:03;62.35;;;25.83;;
20146;SDS011;10234;50.856;15.716;2022-12-17T08:06:49;54.17;;;25.65;;
20146;SDS011;10234;50.856;15.716;2022-12-17T08:09:33;67.85;;;31.13;;
20146;SDS011;10234;50.856;15.716;2022-12-17T08:12:17;71.45;;;30.52;;
20146;SDS011;10234;50.856;15.716;2022-12-17T08:15:03;66.05;;;29.88;;
20146;SDS011;10234;50.856;15.716;2022-12-17T08:17:48;68.40;;;30.52;;
20146;SDS011;10234;50.856;15.716;2022-12-17T08:20:33;63.20;;;29.20;;
20146;SDS011;10234;50.856;15.716;2022-12-17T08:23:18;63.38;;;28.75;;
20146;SDS011;10234;50.856;15.716;2022-12-17T08:26:02;60.47;;;27.73;;
20146;SDS011;10234;50.856;15.716;2022-12-17T08:28:59;62.55;;;29.02;;
20146;SDS011;10234;50.856;15.716;2022-12-17T08:31:45;57.53;;;26.92;;
20146;SDS011;10234;50.856;15.716;2022-12-17T08:34:29;61.80;;;26.25;;
20146;SDS011;10234;50.856;15.716;2022-12-17T08:37:14;46.80;;;25.58;;
20146;SDS011;10234;50.856;15.716;2022-12-17T08:39:58;52.60;;;26.55;;
20146;SDS011;10234;50.856;15.716;2022-12-17T08:42:43;57.08;;;26.85;;
20146;SDS011;10234;50.856;15.716;2022-12-17T08:45:28;57.13;;;25.02;;
20146;SDS011;10234;50.856;15.716;2022-12-17T08:48:13;47.05;;;24.02;;
20146;SDS011;10234;50.856;15.716;2022-12-17T08:50:58;49.53;;;25.35;;
20146;SDS011;10234;50.856;15.716;2022-12-17T08:53:42;58.95;;;25.60;;
20146;SDS011;10234;50.856;15.716;2022-12-17T08:56:26;50.67;;;23.00;;
20146;SDS011;10234;50.856;15.716;2022-12-17T08:59:11;53.55;;;24.55;;
20146;SDS011;10234;50.856;15.716;2022-12-17T09:01:56;52.08;;;25.88;;
20146;SDS011;10234;50.856;15.716;2022-12-17T09:04:42;59.67;;;26.52;;
20146;SDS011;10234;50.856;15.716;2022-12-17T09:07:27;49.60;;;25.00;;
20146;SDS011;10234;50.856;15.716;2022-12-17T09:10:11;54.83;;;26.52;;
20146;SDS011;10234;50.856;15.716;2022-12-17T09:12:59;53.05;;;25.88;;
20146;SDS011;10234;50.856;15.716;2022-12-17T09:15:49;58.22;;;25.95;;
20146;SDS011;10234;50.856;15.716;2022-12-17T09:18:34;47.42;;;23.60;;
20146;SDS011;10234;50.856;15.716;2022-12-17T09:21:20;53.58;;;23.73;;
20146;SDS011;10234;50.856;15.716;2022-12-17T09:24:04;49.13;;;23.00;;
20146;SDS011;10234;50.856;15.716;2022-12-17T09:26:49;45.65;;;23.13;;
20146;SDS011;10234;50.856;15.716;2022-12-17T09:29:34;48.85;;;22.67;;
20146;SDS011;10234;50.856;15.716;2022-12-17T09:32:19;42.15;;;21.52;;
20146;SDS011;10234;50.856;15.716;2022-12-17T09:35:03;45.70;;;22.35;;
20146;SDS011;10234;50.856;15.716;2022-12-17T09:37:51;49.80;;;23.30;;
20146;SDS011;10234;50.856;15.716;2022-12-17T09:40:35;48.03;;;21.48;;
20146;SDS011;10234;50.856;15.716;2022-12-17T09:43:22;48.75;;;23.48;;
20146;SDS011;10234;50.856;15.716;2022-12-17T09:46:13;53.42;;;24.67;;
20146;SDS011;10234;50.856;15.716;2022-12-17T09:49:04;48.17;;;23.60;;
20146;SDS011;10234;50.856;15.716;2022-12-17T09:51:53;54.55;;;26.17;;
20146;SDS011;10234;50.856;15.716;2022-12-17T09:54:40;49.15;;;23.88;;
20146;SDS011;10234;50.856;15.716;2022-12-17T09:57:28;52.10;;;25.17;;
20146;SDS011;10234;50.856;15.716;2022-12-17T10:00:16;49.10;;;23.92;;
20146;SDS011;10234;50.856;15.716;2022-12-17T10:03:02;54.28;;;23.70;;
20146;SDS011;10234;50.856;15.716;2022-12-17T10:05:52;49.80;;;24.52;;
20146;SDS011;10234;50.856;15.716;2022-12-17T10:08:36;53.65;;;24.88;;
20146;SDS011;10234;50.856;15.716;2022-12-17T10:11:23;56.78;;;25.83;;
20146;SDS011;10234;50.856;15.716;2022-12-17T10:14:11;53.38;;;25.92;;
20146;SDS011;10234;50.856;15.716;2022-12-17T10:17:00;50.40;;;26.52;;
20146;SDS011;10234;50.856;15.716;2022-12-17T10:19:48;55.42;;;25.58;;
20146;SDS011;10234;50.856;15.716;2022-12-17T10:22:40;51.70;;;24.77;;
20146;SDS011;10234;50.856;15.716;2022-12-17T10:25:26;56.08;;;26.42;;
20146;SDS011;10234;50.856;15.716;2022-12-17T10:28:12;58.17;;;27.92;;
20146;SDS011;10234;50.856;15.716;2022-12-17T10:30:58;73.28;;;34.03;;
20146;SDS011;10234;50.856;15.716;2022-12-17T10:33:44;65.03;;;33.00;;
20146;SDS011;10234;50.856;15.716;2022-12-17T10:36:29;80.55;;;38.65;;
20146;SDS011;10234;50.856;15.716;2022-12-17T10:39:15;50.72;;;25.65;;
20146;SDS011;10234;50.856;15.716;2022-12-17T10:42:01;54.05;;;26.40;;
20146;SDS011;10234;50.856;15.716;2022-12-17T10:44:47;59.80;;;28.98;;
20146;SDS011;10234;50.856;15.716;2022-12-17T10:47:32;88.13;;;41.15;;
20146;SDS011;10234;50.856;15.716;2022-12-17T10:50:17;70.47;;;33.80;;
20146;SDS011;10234;50.856;15.716;2022-12-17T10:53:04;54.17;;;27.88;;
20146;SDS011;10234;50.856;15.716;2022-12-17T10:56:00;61.75;;;32.03;;
20146;SDS011;10234;50.856;15.716;2022-12-17T10:58:45;57.88;;;28.40;;
20146;SDS011;10234;50.856;15.716;2022-12-17T11:01:33;61.28;;;29.80;;
20146;SDS011;10234;50.856;15.716;2022-12-17T11:04:23;57.00;;;26.58;;
20146;SDS011;10234;50.856;15.716;2022-12-17T11:07:11;59.75;;;27.83;;
20146;SDS011;10234;50.856;15.716;2022-12-17T11:10:00;60.80;;;28.77;;
20146;SDS011;10234;50.856;15.716;2022-12-17T11:12:46;54.55;;;28.80;;
20146;SDS011;10234;50.856;15.716;2022-12-17T11:15:35;61.70;;;28.55;;
20146;SDS011;10234;50.856;15.716;2022-12-17T11:18:26;48.97;;;25.08;;
20146;SDS011;10234;50.856;15.716;2022-12-17T11:21:14;48.83;;;24.05;;
20146;SDS011;10234;50.856;15.716;2022-12-17T11:24:03;48.53;;;28.00;;
20146;SDS011;10234;50.856;15.716;2022-12-17T11:26:49;51.53;;;25.75;;
20146;SDS011;10234;50.856;15.716;2022-12-17T11:29:36;45.05;;;24.10;;
20146;SDS011;10234;50.856;15.716;2022-12-17T11:35:41;50.30;;;23.52;;
20146;SDS011;10234;50.856;15.716;2022-12-17T11:38:35;75.78;;;35.60;;
20146;SDS011;10234;50.856;15.716;2022-12-17T11:41:20;68.40;;;35.58;;
20146;SDS011;10234;50.856;15.716;2022-12-17T11:44:15;46.85;;;25.52;;
20146;SDS011;10234;50.856;15.716;2022-12-17T11:47:11;55.70;;;28.20;;
20146;SDS011;10234;50.856;15.716;2022-12-17T11:50:05;40.00;;;20.95;;
20146;SDS011;10234;50.856;15.716;2022-12-17T11:53:00;42.45;;;22.45;;
20146;SDS011;10234;50.856;15.716;2022-12-17T11:55:53;44.00;;;21.90;;
20146;SDS011;10234;50.856;15.716;2022-12-17T11:58:48;33.92;;;17.65;;
20146;SDS011;10234;50.856;15.716;2022-12-17T12:01:36;38.00;;;18.27;;
20146;SDS011;10234;50.856;15.716;2022-12-17T12:04:32;43.10;;;22.13;;
20146;SDS011;10234;50.856;15.716;2022-12-17T12:07:27;48.15;;;24.80;;
20146;SDS011;10234;50.856;15.716;2022-12-17T12:10:21;44.47;;;21.00;;
20146;SDS011;10234;50.856;15.716;2022-12-17T12:13:15;34.30;;;16.85;;
20146;SDS011;10234;50.856;15.716;2022-12-17T12:16:09;39.55;;;18.35;;
20146;SDS011;10234;50.856;15.716;2022-12-17T12:18:59;40.53;;;21.90;;
20146;SDS011;10234;50.856;15.716;2022-12-17T12:21:55;35.28;;;17.80;;
20146;SDS011;10234;50.856;15.716;2022-12-17T12:24:50;41.88;;;19.10;;
20146;SDS011;10234;50.856;15.716;2022-12-17T12:27:50;33.70;;;17.45;;
20146;SDS011;10234;50.856;15.716;2022-12-17T12:30:41;48.03;;;25.00;;
20146;SDS011;10234;50.856;15.716;2022-12-17T12:33:36;32.03;;;16.00;;
20146;SDS011;10234;50.856;15.716;2022-12-17T12:36:28;32.30;;;16.10;;
20146;SDS011;10234;50.856;15.716;2022-12-17T12:39:15;31.65;;;17.00;;
20146;SDS011;10234;50.856;15.716;2022-12-17T12:42:05;32.58;;;18.88;;
20146;SDS011;10234;50.856;15.716;2022-12-17T12:44:59;47.63;;;29.88;;
20146;SDS011;10234;50.856;15.716;2022-12-17T12:47:49;29.63;;;17.33;;
20146;SDS011;10234;50.856;15.716;2022-12-17T12:50:41;29.73;;;16.20;;
20146;SDS011;10234;50.856;15.716;2022-12-17T12:53:32;39.05;;;20.15;;
20146;SDS011;10234;50.856;15.716;2022-12-17T12:56:26;38.90;;;20.38;;
20146;SDS011;10234;50.856;15.716;2022-12-17T12:59:24;32.83;;;17.55;;
20146;SDS011;10234;50.856;15.716;2022-12-17T13:02:27;35.70;;;18.98;;
20146;SDS011;10234;50.856;15.716;2022-12-17T13:05:20;51.67;;;26.55;;
20146;SDS011;10234;50.856;15.716;2022-12-17T13:08:15;31.02;;;16.77;;
20146;SDS011;10234;50.856;15.716;2022-12-17T13:10:45;24.88;;;14.98;;
20146;SDS011;10234;50.856;15.716;2022-12-17T13:13:16;31.67;;;18.33;;
20146;SDS011;10234;50.856;15.716;2022-12-17T13:15:53;26.73;;;15.93;;
20146;SDS011;10234;50.856;15.716;2022-12-17T13:18:26;37.70;;;24.67;;
20146;SDS011;10234;50.856;15.716;2022-12-17T13:20:58;29.77;;;17.92;;
20146;SDS011;10234;50.856;15.716;2022-12-17T13:23:28;24.40;;;14.90;;
20146;SDS011;10234;50.856;15.716;2022-12-17T13:26:13;28.13;;;14.98;;
20146;SDS011;10234;50.856;15.716;2022-12-17T13:28:49;26.90;;;14.52;;
20146;SDS011;10234;50.856;15.716;2022-12-17T13:31:28;25.85;;;14.23;;
20146;SDS011;10234;50.856;15.716;2022-12-17T13:34:08;26.58;;;13.98;;
20146;SDS011;10234;50.856;15.716;2022-12-17T13:36:43;29.17;;;13.38;;
20146;SDS011;10234;50.856;15.716;2022-12-17T13:39:20;25.85;;;12.63;;
20146;SDS011;10234;50.856;15.716;2022-12-17T13:42:00;27.58;;;13.05;;
20146;SDS011;10234;50.856;15.716;2022-12-17T13:44:33;26.90;;;13.25;;
20146;SDS011;10234;50.856;15.716;2022-12-17T13:47:04;26.08;;;14.25;;
20146;SDS011;10234;50.856;15.716;2022-12-17T13:49:32;25.73;;;13.15;;
20146;SDS011;10234;50.856;15.716;2022-12-17T13:52:00;28.63;;;12.10;;
20146;SDS011;10234;50.856;15.716;2022-12-17T13:54:27;24.23;;;12.15;;
20146;SDS011;10234;50.856;15.716;2022-12-17T13:57:04;22.70;;;12.65;;
20146;SDS011;10234;50.856;15.716;2022-12-17T13:59:32;25.25;;;14.25;;
20146;SDS011;10234;50.856;15.716;2022-12-17T14:01:59;29.73;;;14.55;;
20146;SDS011;10234;50.856;15.716;2022-12-17T14:04:26;26.40;;;14.15;;
20146;SDS011;10234;50.856;15.716;2022-12-17T14:06:56;26.63;;;14.30;;
20146;SDS011;10234;50.856;15.716;2022-12-17T14:09:31;25.55;;;13.95;;
20146;SDS011;10234;50.856;15.716;2022-12-17T14:12:00;29.00;;;14.32;;
20146;SDS011;10234;50.856;15.716;2022-12-17T14:14:48;25.85;;;13.48;;
20146;SDS011;10234;50.856;15.716;2022-12-17T14:17:20;26.55;;;13.77;;
20146;SDS011;10234;50.856;15.716;2022-12-17T14:19:51;25.65;;;12.48;;
20146;SDS011;10234;50.856;15.716;2022-12-17T14:22:24;37.78;;;18.90;;
20146;SDS011;10234;50.856;15.716;2022-12-17T14:24:57;31.63;;;15.15;;
20146;SDS011;10234;50.856;15.716;2022-12-17T14:27:26;71.63;;;41.60;;
20146;SDS011;10234;50.856;15.716;2022-12-17T14:29:57;41.50;;;20.83;;
20146;SDS011;10234;50.856;15.716;2022-12-17T14:32:25;32.40;;;15.90;;
20146;SDS011;10234;50.856;15.716;2022-12-17T14:35:00;42.42;;;22.27;;
20146;SDS011;10234;50.856;15.716;2022-12-17T14:37:28;36.85;;;18.95;;
20146;SDS011;10234;50.856;15.716;2022-12-17T14:39:58;33.45;;;17.73;;
20146;SDS011;10234;50.856;15.716;2022-12-17T14:42:27;34.80;;;18.25;;
20146;SDS011;10234;50.856;15.716;2022-12-17T14:44:57;36.10;;;18.77;;
20146;SDS011;10234;50.856;15.716;2022-12-17T14:47:25;34.83;;;17.23;;
20146;SDS011;10234;50.856;15.716;2022-12-17T14:49:55;33.85;;;17.63;;
20146;SDS011;10234;50.856;15.716;2022-12-17T14:52:37;45.95;;;23.67;;
20146;SDS011;10234;50.856;15.716;2022-12-17T14:55:21;69.45;;;36.63;;
20146;SDS011;10234;50.856;15.716;2022-12-17T14:57:51;46.08;;;24.48;;
20146;SDS011;10234;50.856;15.716;2022-12-17T15:00:19;47.40;;;22.02;;
20146;SDS011;10234;50.856;15.716;2022-12-17T15:02:49;36.25;;;17.83;;
20146;SDS011;10234;50.856;15.716;2022-12-17T15:05:17;39.55;;;19.92;;
20146;SDS011;10234;50.856;15.716;2022-12-17T15:07:45;35.45;;;18.63;;
20146;SDS011;10234;50.856;15.716;2022-12-17T15:10:13;42.55;;;20.65;;
20146;SDS011;10234;50.856;15.716;2022-12-17T15:12:43;46.43;;;25.73;;
20146;SDS011;10234;50.856;15.716;2022-12-17T15:15:12;55.67;;;27.60;;
20146;SDS011;10234;50.856;15.716;2022-12-17T15:17:39;49.22;;;24.23;;
20146;SDS011;10234;50.856;15.716;2022-12-17T15:20:07;47.30;;;21.93;;
20146;SDS011;10234;50.856;15.716;2022-12-17T15:22:40;41.38;;;20.65;;
20146;SDS011;10234;50.856;15.716;2022-12-17T15:25:10;44.90;;;21.70;;
20146;SDS011;10234;50.856;15.716;2022-12-17T15:27:37;41.23;;;21.37;;
20146;SDS011;10234;50.856;15.716;2022-12-17T15:30:04;41.10;;;18.37;;
20146;SDS011;10234;50.856;15.716;2022-12-17T15:32:31;33.10;;;16.48;;
20146;SDS011;10234;50.856;15.716;2022-12-17T15:34:58;38.57;;;17.43;;
20146;SDS011;10234;50.856;15.716;2022-12-17T15:37:25;38.50;;;17.17;;
20146;SDS011;10234;50.856;15.716;2022-12-17T15:39:52;34.50;;;18.03;;
20146;SDS011;10234;50.856;15.716;2022-12-17T15:42:21;50.30;;;24.85;;
20146;SDS011;10234;50.856;15.716;2022-12-17T15:45:06;55.77;;;26.43;;
20146;SDS011;10234;50.856;15.716;2022-12-17T15:47:34;50.67;;;28.00;;